Naples, Italy

2:56 PM CEST on July 29, 2016 (GMT +0200)
Calata San Marco | | Change Station

Elev 0 ft 40.84 °N, 14.25 °E | Updated 1 minute ago

Partly Cloudy
Partly Cloudy
86.7 °F
Feels Like 88 °F
N
3.7
Wind Variable Wind from South
Gusts 9.3 mph

Today
High -- | Low -- °F
--% Chance of Precip.
Yesterday
High -- | Low -- °F
Precip. -- in
Pressure 29.98 in
Visibility 6.2 miles
Clouds Few 3000 ft
Heat Index 88 °F
Dew Point 65 °F
Humidity 48%
Rainfall Not available.
Snow Depth Not available.
5:56 AM 8:21 PM
Waning Crescent, 22% visible
METAR LIRN 291250Z 27008KT 240V350 9999 FEW030 31/15 Q1015 NOSIG
Pressure 29.98 in
Visibility 6.2 miles
Clouds Few 3000 ft
Heat Index 88 °F
Dew Point 65 °F
Humidity 48%
Rainfall Not available.
Snow Depth Not available.
5:56 AM 8:21 PM
Waning Crescent, 22% visible
METAR LIRN 291250Z 27008KT 240V350 9999 FEW030 31/15 Q1015 NOSIG

10-Day Weather Forecast

×

Almanac

Astronomy

Jul. 29, 2016 Rise Set
Actual Time
Civil Twilight
Nautical Twilight
Astronomical Twilight
Moon
Length of Visible Light
Length of Day
Tomorrow will be .
, % of the Moon is Illuminated

Today's Extremes

Country Highs Country Lows

Community

WunderPhotos

Upload Photos

1,928,335 photos uploaded!

WunderBlog® & News

Nearby

Air Quality

  Air Quality AQ Index Pollutant
Not available.

Snow Depth

Station Depth Elevation

Earthquake Activity

City Distance Mag. Time & Date
Minimum magnitude displayed is 2.5.

Coastal Water Temperatures

Place Temperature

Stations

Nearby Weather Stations

Station Location Temp. Windchill Dew Point Humidity Wind Precip. Elev Updated Type